createdAt,value
2023-01-21T00:02:27.916Z,99599.81
2023-01-21T00:04:56.686Z,99600.42
2023-01-21T00:07:25.961Z,99607.13
2023-01-21T00:09:57.901Z,99603.77
2023-01-21T00:12:27.119Z,99605.12
2023-01-21T00:14:59.103Z,99603.13
2023-01-21T00:17:34.748Z,99600.55
2023-01-21T00:20:05.237Z,99600.45
2023-01-21T00:22:34.317Z,99598.10
2023-01-21T00:25:03.802Z,99598.41
2023-01-21T00:27:32.769Z,99601.04
2023-01-21T00:30:02.208Z,99600.43
2023-01-21T00:32:34.151Z,99598.61
2023-01-21T00:35:03.548Z,99601.45
2023-01-21T00:37:35.975Z,99602.23
2023-01-21T00:40:06.939Z,99604.01
2023-01-21T00:42:39.150Z,99606.10
2023-01-21T00:45:22.985Z,99603.97
2023-01-21T00:47:52.005Z,99601.20
2023-01-21T00:50:23.736Z,99607.57
2023-01-21T00:52:55.737Z,99608.36
2023-01-21T00:55:25.691Z,99612.98
2023-01-21T00:57:58.589Z,99616.91
2023-01-21T01:00:27.928Z,99613.79
2023-01-21T01:02:57.225Z,99614.21
2023-01-21T01:05:27.091Z,99616.20
2023-01-21T01:07:55.941Z,99614.17
2023-01-21T01:10:25.858Z,99619.08
2023-01-21T01:12:58.054Z,99614.10
2023-01-21T01:15:27.559Z,99615.20
2023-01-21T01:17:56.384Z,99615.90
2023-01-21T01:20:25.854Z,99616.58
2023-01-21T01:22:57.651Z,99618.29
2023-01-21T01:25:26.439Z,99617.47
2023-01-21T01:27:55.452Z,99618.82
2023-01-21T01:30:27.295Z,99617.52
2023-01-21T01:32:56.193Z,99616.41
2023-01-21T01:35:25.503Z,99619.42
2023-01-21T01:37:55.268Z,99618.02
2023-01-21T01:40:32.212Z,99612.91
2023-01-21T01:43:01.688Z,99616.84
2023-01-21T01:45:31.050Z,99615.49
2023-01-21T01:48:05.749Z,99611.59
2023-01-21T01:50:39.625Z,99616.44
2023-01-21T01:53:19.948Z,99617.51
2023-01-21T01:55:52.934Z,99614.95
2023-01-21T01:58:23.715Z,99612.92
2023-01-21T02:00:52.155Z,99614.44
2023-01-21T02:03:40.041Z,99617.05
2023-01-21T02:06:09.188Z,99620.17
2023-01-21T02:08:39.096Z,99617.45
2023-01-21T02:11:16.439Z,99615.09
2023-01-21T02:13:54.277Z,99615.79
2023-01-21T02:16:45.693Z,99612.08
2023-01-21T02:19:55.774Z,99610.83
2023-01-21T02:22:30.803Z,99610.12
2023-01-21T02:25:47.563Z,99611.23
2023-01-21T02:28:51.061Z,99608.83
2023-01-21T02:31:38.013Z,99604.77
2023-01-21T02:34:17.517Z,99605.86
2023-01-21T02:37:00.621Z,99605.81
2023-01-21T02:39:41.683Z,99602.09
2023-01-21T02:42:25.765Z,99603.41
2023-01-21T02:45:08.482Z,99605.89
2023-01-21T02:47:41.023Z,99601.91
2023-01-21T02:50:18.845Z,99603.54
2023-01-21T02:52:59.528Z,99600.33
2023-01-21T02:55:31.326Z,99597.27
2023-01-21T02:58:08.362Z,99591.80
2023-01-21T03:00:57.670Z,99591.66
2023-01-21T03:03:47.535Z,99592.48
2023-01-21T03:06:50.938Z,99591.61
2023-01-21T03:09:26.608Z,99593.15
2023-01-21T03:12:06.035Z,99593.64
2023-01-21T03:15:01.335Z,99596.40
2023-01-21T03:17:36.603Z,99597.11
2023-01-21T03:20:12.525Z,99601.19
2023-01-21T03:22:51.147Z,99599.92
2023-01-21T03:25:22.620Z,99600.27
2023-01-21T03:27:56.517Z,99601.16
2023-01-21T03:30:27.256Z,99603.98
2023-01-21T03:33:01.561Z,99598.08
2023-01-21T03:35:36.664Z,99600.18
2023-01-21T03:38:13.315Z,99602.52
2023-01-21T03:40:47.263Z,99602.20
2023-01-21T03:43:16.589Z,99600.33
2023-01-21T03:45:58.866Z,99598.54
2023-01-21T03:48:33.278Z,99600.63
2023-01-21T03:51:11.062Z,99596.18
2023-01-21T03:53:40.208Z,99596.14
2023-01-21T03:56:09.614Z,99597.27
2023-01-21T03:58:39.437Z,99596.36
2023-01-21T04:01:09.418Z,99597.86
2023-01-21T04:03:48.784Z,99598.52
2023-01-21T04:06:23.676Z,99591.95
2023-01-21T04:08:55.925Z,99592.82
2023-01-21T04:11:25.385Z,99597.13
2023-01-21T04:13:57.413Z,99598.35
2023-01-21T04:16:31.026Z,99597.43
2023-01-21T04:19:04.874Z,99597.81
2023-01-21T04:21:34.242Z,99599.64
2023-01-21T04:24:06.247Z,99602.92
2023-01-21T04:26:35.407Z,99600.73
2023-01-21T04:29:04.694Z,99596.64
2023-01-21T04:31:33.949Z,99597.41
2023-01-21T04:34:06.011Z,99597.84
2023-01-21T04:36:35.128Z,99604.67
2023-01-21T04:39:04.803Z,99600.73
2023-01-21T04:41:36.947Z,99603.23
2023-01-21T04:44:06.550Z,99605.77
2023-01-21T04:46:35.844Z,99605.96
2023-01-21T04:49:05.151Z,99601.46
2023-01-21T04:51:34.146Z,99602.20
2023-01-21T04:54:05.980Z,99604.14
2023-01-21T04:56:34.911Z,99605.96
2023-01-21T04:59:04.409Z,99608.63
2023-01-21T05:01:33.294Z,99615.55
2023-01-21T05:04:02.800Z,99616.30
2023-01-21T05:06:31.624Z,99620.64
2023-01-21T05:09:00.390Z,99618.17
2023-01-21T05:11:30.090Z,99619.90
2023-01-21T05:13:59.392Z,99624.32
2023-01-21T05:16:28.673Z,99625.45
2023-01-21T05:18:57.608Z,99620.59
2023-01-21T05:21:26.515Z,99615.78
2023-01-21T05:23:55.780Z,99619.79
2023-01-21T05:26:24.675Z,99617.82
2023-01-21T05:28:53.803Z,99616.25
2023-01-21T05:31:25.948Z,99620.08
2023-01-21T05:33:57.838Z,99619.27
2023-01-21T05:36:27.405Z,99617.82
2023-01-21T05:38:56.270Z,99622.20
2023-01-21T05:41:25.674Z,99625.54
2023-01-21T05:43:55.036Z,99627.71
2023-01-21T05:46:27.329Z,99629.00
2023-01-21T05:48:56.752Z,99629.35
2023-01-21T05:51:25.835Z,99627.07
2023-01-21T05:53:58.021Z,99625.92
2023-01-21T05:56:27.090Z,99626.78
2023-01-21T05:58:56.348Z,99621.67
2023-01-21T06:01:28.511Z,99621.61
2023-01-21T06:03:57.507Z,99620.19
2023-01-21T06:06:26.583Z,99620.76
2023-01-21T06:08:55.548Z,99617.23
2023-01-21T06:11:25.367Z,99619.32
2023-01-21T06:13:54.374Z,99618.25
2023-01-21T06:16:26.775Z,99614.99
2023-01-21T06:18:55.853Z,99614.77
2023-01-21T06:21:27.606Z,99615.38
2023-01-21T06:23:57.320Z,99618.19
2023-01-21T06:26:27.198Z,99616.62
2023-01-21T06:29:00.144Z,99620.41
2023-01-21T06:31:29.132Z,99622.49
2023-01-21T06:34:02.066Z,99620.10
2023-01-21T06:36:35.824Z,99617.48
2023-01-21T06:39:09.395Z,99618.87
2023-01-21T06:41:38.608Z,99614.19
2023-01-21T06:44:07.958Z,99617.36
2023-01-21T06:46:41.271Z,99621.48
2023-01-21T06:49:12.725Z,99621.91
2023-01-21T06:51:42.668Z,99624.98
2023-01-21T06:54:12.086Z,99624.92
2023-01-21T06:56:55.474Z,99629.88
2023-01-21T06:59:25.419Z,99639.55
2023-01-21T07:01:57.468Z,99639.01
2023-01-21T07:04:26.764Z,99641.20
2023-01-21T07:06:56.214Z,99642.52
2023-01-21T07:09:25.361Z,99643.98
2023-01-21T07:11:55.214Z,99643.77
2023-01-21T07:14:26.982Z,99643.49
2023-01-21T07:16:56.746Z,99644.30
2023-01-21T07:19:26.455Z,99645.58
2023-01-21T07:21:55.889Z,99645.62
2023-01-21T07:24:24.938Z,99645.55
2023-01-21T07:26:53.934Z,99645.64
2023-01-21T07:29:26.419Z,99646.57
2023-01-21T07:31:55.232Z,99646.02
2023-01-21T07:34:24.325Z,99645.77
2023-01-21T07:36:53.371Z,99643.20
2023-01-21T07:39:23.089Z,99640.58
2023-01-21T07:41:52.108Z,99637.21
2023-01-21T07:44:21.806Z,99638.24
2023-01-21T07:46:57.641Z,99638.20
2023-01-21T07:49:26.672Z,99634.44
2023-01-21T07:51:58.215Z,99637.20
2023-01-21T07:54:27.307Z,99640.91
2023-01-21T07:56:56.308Z,99641.89
2023-01-21T07:59:28.391Z,99646.34
2023-01-21T08:01:57.505Z,99646.38
2023-01-21T08:04:26.993Z,99651.48
2023-01-21T08:06:59.395Z,99650.96
2023-01-21T08:09:28.581Z,99651.93
2023-01-21T08:11:58.005Z,99654.79
2023-01-21T08:14:30.017Z,99658.30
2023-01-21T08:17:00.392Z,99657.86
2023-01-21T08:19:32.810Z,99666.39
2023-01-21T08:22:04.420Z,99658.95
2023-01-21T08:24:36.411Z,99660.60
2023-01-21T08:27:05.346Z,99667.44
2023-01-21T08:29:34.631Z,99667.17
2023-01-21T08:32:06.765Z,99668.28
2023-01-21T08:34:36.865Z,99670.55
2023-01-21T08:37:05.985Z,99669.80
2023-01-21T08:39:35.135Z,99670.02
2023-01-21T08:42:04.586Z,99666.61
2023-01-21T08:44:39.521Z,99665.70
2023-01-21T08:47:11.276Z,99666.85
2023-01-21T08:49:40.164Z,99669.27
2023-01-21T08:52:12.824Z,99666.63
2023-01-21T08:54:42.454Z,99665.10
2023-01-21T08:57:11.953Z,99667.70
2023-01-21T08:59:43.905Z,99673.23
2023-01-21T09:02:25.268Z,99673.65
2023-01-21T09:04:55.152Z,99675.93
2023-01-21T09:07:23.861Z,99677.89
2023-01-21T09:09:53.210Z,99675.91
2023-01-21T09:12:22.744Z,99675.25
2023-01-21T09:14:54.925Z,99677.06
2023-01-21T09:17:23.771Z,99672.28
2023-01-21T09:19:58.519Z,99677.77
2023-01-21T09:22:27.975Z,99676.52
2023-01-21T09:25:09.555Z,99678.41
2023-01-21T09:27:38.383Z,99681.30
2023-01-21T09:30:11.142Z,99682.23
2023-01-21T09:32:43.852Z,99683.19
2023-01-21T09:35:13.050Z,99680.82
2023-01-21T09:37:54.367Z,99682.08
2023-01-21T09:40:26.892Z,99686.56
2023-01-21T09:42:56.248Z,99684.86
2023-01-21T09:45:28.214Z,99689.75
2023-01-21T09:48:00.108Z,99695.27
2023-01-21T09:50:33.534Z,99699.85
2023-01-21T09:53:10.961Z,99701.04
2023-01-21T09:55:46.625Z,99701.39
2023-01-21T09:58:25.399Z,99702.77
2023-01-21T10:00:59.691Z,99703.95
2023-01-21T10:03:37.451Z,99699.04
2023-01-21T10:06:37.990Z,99698.90
2023-01-21T10:09:31.228Z,99698.42
2023-01-21T10:12:25.004Z,99696.56
2023-01-21T10:15:13.617Z,99697.80
2023-01-21T10:17:56.506Z,99698.91
2023-01-21T10:20:31.899Z,99698.04
2023-01-21T10:23:11.831Z,99696.91
2023-01-21T10:25:41.588Z,99693.91
2023-01-21T10:28:21.222Z,99691.30
2023-01-21T10:31:07.779Z,99689.68
2023-01-21T10:33:37.164Z,99687.79
2023-01-21T10:36:35.200Z,99686.58
2023-01-21T10:39:19.197Z,99685.17
2023-01-21T10:42:18.939Z,99687.52
2023-01-21T10:45:00.809Z,99683.06
2023-01-21T10:47:39.216Z,99683.05
2023-01-21T10:50:28.636Z,99677.01
2023-01-21T10:53:05.394Z,99673.41
2023-01-21T10:55:54.675Z,99668.46
2023-01-21T10:58:36.486Z,99665.88
2023-01-21T11:01:24.904Z,99664.27
2023-01-21T11:04:00.456Z,99661.40
2023-01-21T11:06:34.031Z,99659.35
2023-01-21T11:09:06.942Z,99653.30
2023-01-21T11:11:36.931Z,99649.71
2023-01-21T11:14:06.227Z,99647.32
2023-01-21T11:16:56.011Z,99646.01
2023-01-21T11:19:30.664Z,99648.95
2023-01-21T11:22:03.632Z,99651.52
2023-01-21T11:24:43.234Z,99652.88
2023-01-21T11:27:22.069Z,99650.05
2023-01-21T11:29:54.784Z,99650.17
2023-01-21T11:32:31.475Z,99655.23
2023-01-21T11:35:10.285Z,99649.43
2023-01-21T11:37:45.854Z,99646.38
2023-01-21T11:40:22.980Z,99640.16
2023-01-21T11:42:54.468Z,99644.27
2023-01-21T11:45:30.942Z,99646.00
2023-01-21T11:48:01.614Z,99647.52
2023-01-21T11:50:37.232Z,99645.60
2023-01-21T11:53:17.118Z,99641.48
2023-01-21T11:55:56.606Z,99644.30
2023-01-21T11:58:32.555Z,99646.23
2023-01-21T12:01:04.218Z,99646.08
2023-01-21T12:03:42.455Z,99648.42
2023-01-21T12:06:19.508Z,99643.23
2023-01-21T12:08:55.369Z,99644.20
2023-01-21T12:11:28.160Z,99643.35
2023-01-21T12:14:08.915Z,99643.21
2023-01-21T12:16:48.657Z,99643.40
2023-01-21T12:19:42.667Z,99642.88
2023-01-21T12:22:35.387Z,99640.33
2023-01-21T12:25:40.459Z,99645.23
2023-01-21T12:28:28.832Z,99641.73
2023-01-21T12:31:11.195Z,99634.98
2023-01-21T12:33:51.003Z,99640.02
2023-01-21T12:36:36.426Z,99642.30
2023-01-21T12:39:22.001Z,99649.95
2023-01-21T12:42:02.268Z,99652.53
2023-01-21T12:44:39.540Z,99654.77
2023-01-21T12:47:18.835Z,99657.06
2023-01-21T12:50:04.507Z,99653.13
2023-01-21T12:52:42.261Z,99655.61
2023-01-21T12:55:32.360Z,99656.59
2023-01-21T12:58:05.859Z,99660.73
2023-01-21T13:00:38.905Z,99660.30
2023-01-21T13:03:27.041Z,99665.73
2023-01-21T13:06:03.395Z,99664.30
2023-01-21T13:08:53.360Z,99666.81
2023-01-21T13:11:27.145Z,99668.17
2023-01-21T13:14:19.898Z,99669.23
2023-01-21T13:16:55.135Z,99671.52
2023-01-21T13:19:30.381Z,99674.90
2023-01-21T13:22:07.806Z,99673.36
2023-01-21T13:25:01.541Z,99675.86
2023-01-21T13:27:39.078Z,99687.39
2023-01-21T13:30:27.388Z,99694.20
2023-01-21T13:33:20.923Z,99698.21
2023-01-21T13:36:05.063Z,99697.99
2023-01-21T13:38:42.120Z,99701.14
2023-01-21T13:41:34.822Z,99703.89
2023-01-21T13:44:28.991Z,99709.46
2023-01-21T13:47:10.560Z,99715.29
2023-01-21T13:50:07.208Z,99720.64
2023-01-21T13:52:58.423Z,99726.13
2023-01-21T13:55:41.410Z,99726.60
2023-01-21T13:58:13.081Z,99729.14
2023-01-21T14:00:46.660Z,99728.48
2023-01-21T14:03:37.300Z,99734.48
2023-01-21T14:06:14.556Z,99739.24
2023-01-21T14:08:51.587Z,99747.88
2023-01-21T14:11:29.532Z,99748.61
2023-01-21T14:14:18.115Z,99749.83
2023-01-21T14:17:21.688Z,99754.38
2023-01-21T14:20:33.183Z,99757.98
2023-01-21T14:23:27.061Z,99755.35
2023-01-21T14:26:10.939Z,99756.29
2023-01-21T14:28:55.428Z,99757.02
2023-01-21T14:31:33.392Z,99760.98
2023-01-21T14:34:11.580Z,99763.22
2023-01-21T14:36:55.972Z,99766.02
2023-01-21T14:39:40.811Z,99772.77
2023-01-21T14:42:15.838Z,99774.70
2023-01-21T14:45:07.670Z,99778.67
2023-01-21T14:47:51.201Z,99781.41
2023-01-21T14:50:45.878Z,99784.42
2023-01-21T14:53:26.857Z,99789.61
2023-01-21T14:56:29.246Z,99795.48
2023-01-21T14:59:01.303Z,99793.39
2023-01-21T15:01:41.961Z,99802.84
2023-01-21T15:04:26.268Z,99801.73
2023-01-21T15:07:01.814Z,99805.74
2023-01-21T15:09:34.787Z,99803.45
2023-01-21T15:12:11.942Z,99805.94
2023-01-21T15:14:45.786Z,99805.64
2023-01-21T15:17:49.512Z,99804.06
2023-01-21T15:20:49.843Z,99803.52
2023-01-21T15:23:38.747Z,99810.59
2023-01-21T15:26:33.855Z,99811.45
2023-01-21T15:29:39.210Z,99812.33
2023-01-21T15:32:30.821Z,99822.44
2023-01-21T15:35:04.634Z,99822.02
2023-01-21T15:37:39.667Z,99827.51
2023-01-21T15:40:19.103Z,99829.27
2023-01-21T15:43:00.384Z,99828.84
2023-01-21T15:45:36.833Z,99831.85
2023-01-21T15:48:41.224Z,99831.35
2023-01-21T15:51:27.406Z,99840.48
2023-01-21T15:54:13.091Z,99842.11
2023-01-21T15:56:54.521Z,99848.16
2023-01-21T15:59:56.549Z,99866.23
2023-01-21T16:02:31.748Z,99874.17
2023-01-21T16:05:18.433Z,99881.73
2023-01-21T16:08:03.771Z,99886.25
2023-01-21T16:10:46.998Z,99893.38
2023-01-21T16:13:23.056Z,99893.05
2023-01-21T16:16:09.311Z,99894.83
2023-01-21T16:18:51.859Z,99900.36
2023-01-21T16:21:28.199Z,99908.16
2023-01-21T16:24:05.064Z,99910.71
2023-01-21T16:26:34.609Z,99910.41
2023-01-21T16:29:12.949Z,99916.52
2023-01-21T16:31:50.263Z,99922.80
2023-01-21T16:34:40.858Z,99923.21
2023-01-21T16:37:14.170Z,99921.70
2023-01-21T16:39:44.720Z,99918.64
2023-01-21T16:42:32.463Z,99922.11
2023-01-21T16:45:09.439Z,99927.30
2023-01-21T16:47:40.386Z,99927.17
2023-01-21T16:50:23.260Z,99932.52
2023-01-21T16:53:08.618Z,99939.27
2023-01-21T16:55:45.048Z,99939.53
2023-01-21T16:58:24.498Z,99943.42
2023-01-21T17:01:09.672Z,99941.70
2023-01-21T17:03:39.059Z,99945.61
2023-01-21T17:06:16.966Z,99947.51
2023-01-21T17:08:56.363Z,99944.63
2023-01-21T17:11:25.633Z,99947.06
2023-01-21T17:13:58.792Z,99950.97
2023-01-21T17:16:34.567Z,99954.09
2023-01-21T17:19:07.279Z,99954.85
2023-01-21T17:21:41.897Z,99964.27
2023-01-21T17:24:32.497Z,99962.45
2023-01-21T17:27:09.780Z,99971.29
2023-01-21T17:29:39.072Z,99976.30
2023-01-21T17:32:29.950Z,99977.84
2023-01-21T17:35:13.024Z,99981.27
2023-01-21T17:37:57.693Z,99982.41
2023-01-21T17:40:32.708Z,99987.83
2023-01-21T17:43:15.322Z,99992.08
2023-01-21T17:45:46.459Z,99992.92
2023-01-21T17:48:30.029Z,100002.17
2023-01-21T17:51:10.324Z,100003.27
2023-01-21T17:53:49.420Z,100007.27
2023-01-21T17:56:36.722Z,100014.16
2023-01-21T17:59:28.423Z,100014.14
2023-01-21T18:02:00.669Z,100010.91
2023-01-21T18:04:33.102Z,100014.56
2023-01-21T18:07:15.608Z,100015.78
2023-01-21T18:09:45.081Z,100026.96
2023-01-21T18:12:14.165Z,100029.23
2023-01-21T18:14:44.016Z,100038.13
2023-01-21T18:17:17.224Z,100040.92
2023-01-21T18:19:46.402Z,100039.92
2023-01-21T18:22:26.364Z,100039.58
2023-01-21T18:24:55.841Z,100038.97
2023-01-21T18:27:26.346Z,100045.17
2023-01-21T18:29:59.036Z,100045.84
2023-01-21T18:32:28.476Z,100046.93
2023-01-21T18:35:00.619Z,100053.38
2023-01-21T18:37:29.853Z,100057.61
2023-01-21T18:40:01.967Z,100065.36
2023-01-21T18:42:31.075Z,100071.85
2023-01-21T18:45:00.740Z,100078.88
2023-01-21T18:47:30.026Z,100090.87
2023-01-21T18:50:05.432Z,100100.39
2023-01-21T18:52:35.249Z,100102.38
2023-01-21T18:55:09.563Z,100108.64
2023-01-21T18:57:44.395Z,100115.09
2023-01-21T19:00:20.480Z,100120.68
2023-01-21T19:02:55.837Z,100115.20
2023-01-21T19:05:30.062Z,100110.87
2023-01-21T19:07:59.655Z,100110.29
2023-01-21T19:10:29.642Z,100112.29
2023-01-21T19:13:01.860Z,100114.39
2023-01-21T19:15:31.388Z,100111.16
2023-01-21T19:18:09.466Z,100107.25
2023-01-21T19:20:41.063Z,100113.83
2023-01-21T19:23:15.099Z,100116.73
2023-01-21T19:25:52.569Z,100123.69
2023-01-21T19:28:28.027Z,100121.45
2023-01-21T19:30:57.921Z,100121.33
2023-01-21T19:33:30.699Z,100122.39
2023-01-21T19:36:03.299Z,100125.38
2023-01-21T19:38:33.016Z,100129.46
2023-01-21T19:41:03.459Z,100135.61
2023-01-21T19:43:33.167Z,100137.30
2023-01-21T19:46:02.531Z,100140.02
2023-01-21T19:48:31.865Z,100146.44
2023-01-21T19:51:01.298Z,100150.79
2023-01-21T19:53:31.047Z,100147.80
2023-01-21T19:56:01.107Z,100149.37
2023-01-21T19:58:31.896Z,100146.45
2023-01-21T20:01:04.539Z,100152.13
2023-01-21T20:03:38.874Z,100150.89
2023-01-21T20:06:13.405Z,100150.54
2023-01-21T20:08:44.153Z,100151.98
2023-01-21T20:11:15.847Z,100153.80
2023-01-21T20:13:54.216Z,100152.75
2023-01-21T20:16:27.249Z,100158.77
2023-01-21T20:18:59.271Z,100165.55
2023-01-21T20:21:28.911Z,100173.90
2023-01-21T20:23:58.333Z,100180.50
2023-01-21T20:26:28.868Z,100187.19
2023-01-21T20:29:00.945Z,100191.48
2023-01-21T20:31:30.727Z,100194.51
2023-01-21T20:34:00.611Z,100195.41
2023-01-21T20:36:33.133Z,100199.04
2023-01-21T20:39:03.154Z,100203.52
2023-01-21T20:41:33.018Z,100204.82
2023-01-21T20:44:03.143Z,100207.20
2023-01-21T20:46:33.348Z,100211.95
2023-01-21T20:49:03.440Z,100216.17
2023-01-21T20:51:33.054Z,100217.41
2023-01-21T20:54:02.951Z,100223.73
2023-01-21T20:56:37.838Z,100224.29
2023-01-21T20:59:11.810Z,100225.66
2023-01-21T21:01:42.168Z,100237.69
2023-01-21T21:04:14.129Z,100243.30
2023-01-21T21:06:45.443Z,100239.99
2023-01-21T21:09:14.877Z,100247.76
2023-01-21T21:11:44.194Z,100248.13
2023-01-21T21:14:14.479Z,100251.42
2023-01-21T21:16:44.337Z,100249.45
2023-01-21T21:19:14.208Z,100254.29
2023-01-21T21:21:43.728Z,100255.95
2023-01-21T21:24:13.040Z,100257.95
2023-01-21T21:26:44.159Z,100268.58
2023-01-21T21:29:14.485Z,100268.80
2023-01-21T21:31:44.870Z,100275.61
2023-01-21T21:34:14.612Z,100276.13
2023-01-21T21:36:43.920Z,100279.25
2023-01-21T21:39:25.006Z,100279.97
2023-01-21T21:42:16.130Z,100281.16
2023-01-21T21:44:46.036Z,100282.46
2023-01-21T21:47:36.229Z,100278.36
2023-01-21T21:50:10.345Z,100273.21
2023-01-21T21:52:42.605Z,100271.32
2023-01-21T21:55:14.101Z,100271.32
2023-01-21T21:57:44.155Z,100275.63
2023-01-21T22:00:16.817Z,100280.31
2023-01-21T22:02:55.283Z,100283.73
2023-01-21T22:05:27.829Z,100289.58
2023-01-21T22:08:00.223Z,100287.76
2023-01-21T22:10:32.554Z,100287.67
2023-01-21T22:13:04.701Z,100296.36
2023-01-21T22:15:35.635Z,100295.55
2023-01-21T22:18:07.764Z,100295.21
2023-01-21T22:20:37.076Z,100296.77
2023-01-21T22:23:06.567Z,100297.37
2023-01-21T22:25:35.981Z,100302.80
2023-01-21T22:28:05.523Z,100310.43
2023-01-21T22:30:37.436Z,100310.69
2023-01-21T22:33:07.104Z,100309.71
2023-01-21T22:35:36.359Z,100312.44
2023-01-21T22:38:06.302Z,100312.70
2023-01-21T22:40:39.688Z,100313.23
2023-01-21T22:43:09.979Z,100309.89
2023-01-21T22:45:46.348Z,100306.00
2023-01-21T22:48:15.181Z,100306.46
2023-01-21T22:50:54.187Z,100309.38
2023-01-21T22:53:24.506Z,100304.80
2023-01-21T22:55:59.296Z,100305.70
2023-01-21T22:58:30.085Z,100300.84
2023-01-21T23:01:00.336Z,100307.04
2023-01-21T23:03:32.498Z,100311.45
2023-01-21T23:06:07.368Z,100312.42
2023-01-21T23:08:39.646Z,100318.29
2023-01-21T23:11:13.907Z,100314.04
2023-01-21T23:13:43.504Z,100315.41
2023-01-21T23:16:16.139Z,100314.08
2023-01-21T23:18:45.564Z,100314.14
2023-01-21T23:21:19.895Z,100319.44
2023-01-21T23:23:49.665Z,100325.24
2023-01-21T23:26:32.627Z,100329.43
2023-01-21T23:29:02.035Z,100330.98
2023-01-21T23:31:34.715Z,100331.02
2023-01-21T23:34:06.938Z,100330.01
2023-01-21T23:36:39.311Z,100329.91
2023-01-21T23:39:08.775Z,100333.67
2023-01-21T23:41:40.932Z,100338.88
2023-01-21T23:44:12.632Z,100343.72
2023-01-21T23:46:43.061Z,100350.28
2023-01-21T23:49:14.210Z,100347.07
2023-01-21T23:51:43.672Z,100346.77
2023-01-21T23:54:13.419Z,100351.17
2023-01-21T23:56:45.957Z,100354.35
2023-01-21T23:59:18.571Z,100359.66
